Time,TemperatureF,DewpointF,PressureIn,WindDirection,WindDirectionDegrees,WindSpeedMPH,WindSpeedGustMPH,Humidity,HourlyPrecipIn,Conditions,Clouds,dailyrainin,SoftwareType,DateUTC
2013-07-19 00:12:00,69.0,68.0,30.23,WNW,282,0.0,-999.0,97,-99.99,,,-99.99,,2013-07-19 04:12:00,
2013-07-19 00:33:00,68.0,67.0,30.22,WNW,282,0.0,-999.0,98,-99.99,,,-99.99,,2013-07-19 04:33:00,
2013-07-19 00:44:00,68.0,67.0,30.23,WNW,282,0.0,-999.0,98,-99.99,,,-99.99,,2013-07-19 04:44:00,
2013-07-19 00:52:00,68.0,67.0,30.22,WNW,282,0.0,-999.0,98,-99.99,,,-99.99,,2013-07-19 04:52:00,
2013-07-19 01:02:00,68.0,67.0,30.22,WNW,282,0.0,-999.0,98,-99.99,,,-99.99,,2013-07-19 05:02:00,
2013-07-19 01:11:00,68.0,67.0,30.22,WNW,282,0.0,-999.0,98,-99.99,,,-99.99,,2013-07-19 05:11:00,
2013-07-19 01:32:00,67.0,66.0,30.22,WNW,282,0.0,-999.0,98,-99.99,,,-99.99,,2013-07-19 05:32:00,
2013-07-19 01:43:00,67.0,66.0,30.22,WNW,282,0.0,-999.0,98,-99.99,,,-99.99,,2013-07-19 05:43:00,
2013-07-19 01:53:00,67.0,66.0,30.22,WNW,282,0.0,-999.0,98,-99.99,,,-99.99,,2013-07-19 05:53:00,
2013-07-19 02:01:00,66.0,65.0,30.21,WNW,282,0.0,-999.0,98,-99.99,,,-99.99,,2013-07-19 06:01:00,
2013-07-19 02:11:00,66.0,65.0,30.21,WNW,282,0.0,-999.0,98,-99.99,,,-99.99,,2013-07-19 06:11:00,
2013-07-19 02:22:00,67.0,66.0,30.21,WNW,282,0.0,-999.0,98,-99.99,,,-99.99,,2013-07-19 06:22:00,
2013-07-19 02:33:00,66.0,65.0,30.21,WNW,282,0.0,-999.0,98,-99.99,,,-99.99,,2013-07-19 06:33:00,
2013-07-19 02:43:00,66.0,65.0,30.21,WNW,282,0.0,-999.0,98,-99.99,,,-99.99,,2013-07-19 06:43:00,
2013-07-19 02:53:00,66.0,65.0,30.20,WNW,282,0.0,-999.0,98,-99.99,,,-99.99,,2013-07-19 06:53:00,
2013-07-19 03:01:00,66.0,65.0,30.20,WNW,282,0.0,-999.0,98,-99.99,,,-99.99,,2013-07-19 07:01:00,
2013-07-19 03:12:00,65.0,64.0,30.20,WNW,282,0.0,-999.0,98,-99.99,,,-99.99,,2013-07-19 07:12:00,
2013-07-19 03:22:00,65.0,64.0,30.19,WNW,282,0.0,-999.0,98,-99.99,,,-99.99,,2013-07-19 07:22:00,
2013-07-19 03:32:00,65.0,64.0,30.19,WNW,282,0.0,-999.0,98,-99.99,,,-99.99,,2013-07-19 07:32:00,
2013-07-19 03:43:00,65.0,64.0,30.19,WNW,282,0.0,-999.0,98,-99.99,,,-99.99,,2013-07-19 07:43:00,
2013-07-19 03:53:00,65.0,64.0,30.19,WNW,282,0.0,-999.0,98,-99.99,,,-99.99,,2013-07-19 07:53:00,
2013-07-19 04:01:00,65.0,64.0,30.18,WNW,282,0.0,-999.0,98,-99.99,,,-99.99,,2013-07-19 08:01:00,
2013-07-19 04:12:00,65.0,64.0,30.18,WNW,282,0.0,-999.0,98,-99.99,,,-99.99,,2013-07-19 08:12:00,
2013-07-19 04:22:00,64.0,64.0,30.18,WNW,282,0.0,-999.0,99,-99.99,,,-99.99,,2013-07-19 08:22:00,
2013-07-19 04:33:00,64.0,63.0,30.18,WNW,282,0.0,-999.0,98,-99.99,,,-99.99,,2013-07-19 08:33:00,
2013-07-19 04:43:00,64.0,63.0,30.18,WNW,282,0.0,-999.0,98,-99.99,,,-99.99,,2013-07-19 08:43:00,
2013-07-19 04:52:00,63.0,62.0,30.18,WNW,282,0.0,-999.0,98,-99.99,,,-99.99,,2013-07-19 08:52:00,
2013-07-19 05:02:00,63.0,62.0,30.18,WNW,282,0.0,-999.0,98,-99.99,,,-99.99,,2013-07-19 09:02:00,
2013-07-19 05:11:00,63.0,63.0,30.19,WNW,282,0.0,-999.0,99,-99.99,,,-99.99,,2013-07-19 09:11:00,
2013-07-19 05:22:00,64.0,64.0,30.18,WNW,282,0.0,-999.0,99,-99.99,,,-99.99,,2013-07-19 09:22:00,
2013-07-19 05:43:00,63.0,63.0,30.19,WNW,282,0.0,-999.0,99,-99.99,,,-99.99,,2013-07-19 09:43:00,
2013-07-19 05:52:00,63.0,63.0,30.19,WNW,282,0.0,-999.0,99,-99.99,,,-99.99,,2013-07-19 09:52:00,
2013-07-19 06:01:00,63.0,63.0,30.19,WNW,282,0.0,-999.0,99,-99.99,,,-99.99,,2013-07-19 10:01:00,
2013-07-19 06:11:00,63.0,63.0,30.19,WNW,282,0.0,-999.0,99,-99.99,,,-99.99,,2013-07-19 10:11:00,
2013-07-19 06:32:00,63.0,63.0,30.19,NW,306,0.0,-999.0,99,-99.99,,,-99.99,,2013-07-19 10:32:00,
2013-07-19 06:43:00,63.0,63.0,30.19,WNW,302,0.0,-999.0,99,-99.99,,,-99.99,,2013-07-19 10:43:00,
2013-07-19 06:52:00,62.0,62.0,30.19,WNW,302,0.0,-999.0,99,-99.99,,,-99.99,,2013-07-19 10:52:00,
2013-07-19 07:12:00,63.0,63.0,30.19,WNW,302,0.0,-999.0,99,-99.99,,,-99.99,,2013-07-19 11:12:00,
2013-07-19 07:33:00,63.0,63.0,30.19,WNW,302,0.0,-999.0,99,-99.99,,,-99.99,,2013-07-19 11:33:00,
2013-07-19 07:43:00,63.0,63.0,30.19,WNW,302,0.0,-999.0,99,-99.99,,,-99.99,,2013-07-19 11:43:00,
2013-07-19 07:52:00,63.0,63.0,30.20,WNW,302,0.0,-999.0,99,-99.99,,,-99.99,,2013-07-19 11:52:00,
2013-07-19 08:01:00,63.0,63.0,30.20,WNW,302,0.0,-999.0,99,-99.99,,,-99.99,,2013-07-19 12:01:00,
2013-07-19 08:12:00,64.0,64.0,30.20,WNW,302,0.0,-999.0,99,-99.99,,,-99.99,,2013-07-19 12:12:00,
2013-07-19 08:22:00,65.0,65.0,30.20,WNW,302,0.0,-999.0,100,-99.99,,,-99.99,,2013-07-19 12:22:00,
2013-07-19 08:43:00,66.0,66.0,30.20,WNW,302,0.0,-999.0,100,-99.99,,,-99.99,,2013-07-19 12:43:00,
2013-07-19 08:53:00,67.0,67.0,30.21,WNW,302,0.0,-999.0,100,-99.99,,,-99.99,,2013-07-19 12:53:00,
2013-07-19 09:12:00,68.0,68.0,30.21,WNW,302,0.0,-999.0,100,-99.99,,,-99.99,,2013-07-19 13:12:00,
2013-07-19 09:22:00,70.0,70.0,30.20,WNW,302,0.0,-999.0,100,-99.99,,,-99.99,,2013-07-19 13:22:00,
2013-07-19 09:53:00,73.0,73.0,30.20,WNW,302,0.0,-999.0,100,-99.99,,,-99.99,,2013-07-19 13:53:00,
2013-07-19 10:02:00,73.0,73.0,30.20,WNW,302,0.0,-999.0,100,-99.99,,,-99.99,,2013-07-19 14:02:00,
2013-07-19 10:12:00,74.0,72.0,30.20,WNW,302,0.0,-999.0,94,-99.99,,,-99.99,,2013-07-19 14:12:00,
2013-07-19 10:33:00,76.0,72.0,30.20,WNW,302,0.0,-999.0,87,-99.99,,,-99.99,,2013-07-19 14:33:00,
2013-07-19 10:43:00,78.0,72.0,30.20,WSW,245,1.0,-999.0,83,-99.99,,,-99.99,,2013-07-19 14:43:00,
2013-07-19 10:53:00,78.0,71.0,30.19,West,267,1.0,-999.0,80,-99.99,,,-99.99,,2013-07-19 14:53:00,
2013-07-19 11:02:00,78.0,71.0,30.19,West,267,1.0,-999.0,80,-99.99,,,-99.99,,2013-07-19 15:02:00,
2013-07-19 11:11:00,79.0,72.0,30.20,SW,223,1.0,-999.0,79,-99.99,,,-99.99,,2013-07-19 15:11:00,
2013-07-19 11:23:00,77.0,70.0,30.19,NNW,336,4.0,-999.0,80,-99.99,,,-99.99,,2013-07-19 15:23:00,
2013-07-19 11:32:00,77.0,70.0,30.19,NNW,336,4.0,-999.0,80,-99.99,,,-99.99,,2013-07-19 15:32:00,
2013-07-19 11:43:00,76.0,70.0,30.19,NNW,331,2.0,-999.0,82,-99.99,,,-99.99,,2013-07-19 15:43:00,
2013-07-19 11:52:00,78.0,71.0,30.19,NNW,336,4.0,-999.0,79,-99.99,,,-99.99,,2013-07-19 15:52:00,
2013-07-19 12:01:00,78.0,71.0,30.19,NNW,336,4.0,-999.0,79,-99.99,,,-99.99,,2013-07-19 16:01:00,
2013-07-19 12:11:00,78.0,70.0,30.19,NNW,329,6.0,-999.0,76,-99.99,,,-99.99,,2013-07-19 16:11:00,
2013-07-19 12:32:00,79.0,70.0,30.19,WNW,288,5.0,-999.0,75,-99.99,,,-99.99,,2013-07-19 16:32:00,
2013-07-19 12:43:00,78.0,71.0,30.19,NNW,334,4.0,-999.0,78,-99.99,,,-99.99,,2013-07-19 16:43:00,
2013-07-19 12:53:00,79.0,71.0,30.19,NW,323,4.0,-999.0,77,-99.99,,,-99.99,,2013-07-19 16:53:00,
2013-07-19 13:12:00,80.0,72.0,30.18,NNW,339,5.0,-999.0,77,-99.99,,,-99.99,,2013-07-19 17:12:00,
2013-07-19 13:32:00,80.0,71.0,30.17,WNW,294,4.0,-999.0,75,-99.99,,,-99.99,,2013-07-19 17:32:00,
2013-07-19 13:43:00,80.0,69.0,30.16,NNW,342,5.0,-999.0,69,-99.99,,,-99.99,,2013-07-19 17:43:00,
2013-07-19 14:01:00,80.0,71.0,30.16,NNW,344,6.0,-999.0,73,-99.99,,,-99.99,,2013-07-19 18:01:00,
2013-07-19 14:11:00,80.0,71.0,30.16,West,281,4.0,-999.0,75,-99.99,,,-99.99,,2013-07-19 18:11:00,
2013-07-19 14:32:00,81.0,70.0,30.16,WNW,302,2.0,-999.0,69,-99.99,,,-99.99,,2013-07-19 18:32:00,
2013-07-19 14:42:00,82.0,70.0,30.16,WNW,291,2.0,-999.0,67,-99.99,,,-99.99,,2013-07-19 18:42:00,
2013-07-19 15:11:00,81.0,71.0,30.14,SE,134,1.0,-999.0,72,-99.99,,,-99.99,,2013-07-19 19:11:00,
2013-07-19 15:32:00,79.0,71.0,30.14,SE,136,4.0,-999.0,77,-99.99,,,-99.99,,2013-07-19 19:32:00,
2013-07-19 15:43:00,79.0,72.0,30.13,SSW,207,1.0,-999.0,79,-99.99,,,-99.99,,2013-07-19 19:43:00,
2013-07-19 15:52:00,80.0,74.0,30.11,SSW,194,1.0,-999.0,82,-99.99,,,-99.99,,2013-07-19 19:52:00,
2013-07-19 16:11:00,81.0,72.0,30.10,South,188,2.0,-999.0,75,-99.99,,,-99.99,,2013-07-19 20:11:00,
2013-07-19 16:22:00,80.0,71.0,30.10,SE,144,1.0,-999.0,73,-99.99,,,-99.99,,2013-07-19 20:22:00,
2013-07-19 16:43:00,80.0,70.0,30.10,West,275,3.0,-999.0,72,-99.99,,,-99.99,,2013-07-19 20:43:00,
2013-07-19 16:52:00,81.0,71.0,30.10,WSW,244,5.0,-999.0,71,-99.99,,,-99.99,,2013-07-19 20:52:00,
2013-07-19 17:01:00,81.0,71.0,30.10,WSW,244,5.0,-999.0,71,-99.99,,,-99.99,,2013-07-19 21:01:00,
2013-07-19 17:11:00,81.0,70.0,30.11,West,279,4.0,-999.0,69,-99.99,,,-99.99,,2013-07-19 21:11:00,
2013-07-19 17:22:00,79.0,70.0,30.10,WNW,293,4.0,-999.0,74,-99.99,,,-99.99,,2013-07-19 21:22:00,
2013-07-19 17:42:00,79.0,71.0,30.10,WNW,289,2.0,-999.0,76,-99.99,,,-99.99,,2013-07-19 21:42:00,
2013-07-19 17:52:00,78.0,70.0,30.11,West,280,0.0,-999.0,76,-99.99,,,-99.99,,2013-07-19 21:52:00,
2013-07-19 18:01:00,78.0,70.0,30.11,West,280,0.0,-999.0,76,-99.99,,,-99.99,,2013-07-19 22:01:00,
2013-07-19 18:11:00,77.0,69.0,30.10,NW,304,4.0,-999.0,76,-99.99,,,-99.99,,2013-07-19 22:11:00,
2013-07-19 18:32:00,77.0,70.0,30.11,WNW,297,1.0,-999.0,78,-99.99,,,-99.99,,2013-07-19 22:32:00,
2013-07-19 18:43:00,77.0,71.0,30.11,WNW,294,1.0,-999.0,81,-99.99,,,-99.99,,2013-07-19 22:43:00,
2013-07-19 18:52:00,76.0,70.0,30.11,NNW,342,3.0,-999.0,82,-99.99,,,-99.99,,2013-07-19 22:52:00,
2013-07-19 19:01:00,76.0,70.0,30.11,NNW,342,3.0,-999.0,82,-99.99,,,-99.99,,2013-07-19 23:01:00,
2013-07-19 19:11:00,76.0,70.0,30.10,WNW,290,0.0,-999.0,81,-99.99,,,-99.99,,2013-07-19 23:11:00,
2013-07-19 19:43:00,75.0,70.0,30.11,WSW,245,1.0,-999.0,85,-99.99,,,-99.99,,2013-07-19 23:43:00,
2013-07-19 19:52:00,75.0,70.0,30.11,West,270,0.0,-999.0,85,-99.99,,,-99.99,,2013-07-19 23:52:00,
2013-07-19 20:01:00,75.0,71.0,30.11,West,270,0.0,-999.0,87,-99.99,,,-99.99,,2013-07-20 00:01:00,
2013-07-19 20:11:00,75.0,71.0,30.11,West,270,0.0,-999.0,87,-99.99,,,-99.99,,2013-07-20 00:11:00,
2013-07-19 20:22:00,74.0,70.0,30.11,West,270,0.0,-999.0,87,-99.99,,,-99.99,,2013-07-20 00:22:00,
2013-07-19 20:32:00,74.0,71.0,30.11,West,270,0.0,-999.0,89,-99.99,,,-99.99,,2013-07-20 00:32:00,
2013-07-19 20:43:00,74.0,71.0,30.11,West,270,0.0,-999.0,89,-99.99,,,-99.99,,2013-07-20 00:43:00,
2013-07-19 20:52:00,73.0,70.0,30.11,West,270,0.0,-999.0,91,-99.99,,,-99.99,,2013-07-20 00:52:00,
2013-07-19 21:01:00,72.0,70.0,30.12,West,270,1.0,-999.0,92,-99.99,,,-99.99,,2013-07-20 01:01:00,
2013-07-19 21:11:00,72.0,70.0,30.12,West,270,1.0,-999.0,92,-99.99,,,-99.99,,2013-07-20 01:11:00,
2013-07-19 21:22:00,71.0,69.0,30.12,West,270,0.0,-999.0,92,-99.99,,,-99.99,,2013-07-20 01:22:00,
2013-07-19 21:32:00,70.0,68.0,30.13,West,270,1.0,-999.0,92,-99.99,,,-99.99,,2013-07-20 01:32:00,
2013-07-19 21:52:00,70.0,68.0,30.14,West,273,1.0,-999.0,93,-99.99,,,-99.99,,2013-07-20 01:52:00,
2013-07-19 22:02:00,69.0,67.0,30.14,West,281,0.0,-999.0,94,-99.99,,,-99.99,,2013-07-20 02:02:00,
2013-07-19 22:11:00,69.0,67.0,30.14,West,281,0.0,-999.0,94,-99.99,,,-99.99,,2013-07-20 02:11:00,
2013-07-19 22:22:00,69.0,67.0,30.14,West,281,0.0,-999.0,94,-99.99,,,-99.99,,2013-07-20 02:22:00,
2013-07-19 22:33:00,69.0,67.0,30.15,West,281,0.0,-999.0,94,-99.99,,,-99.99,,2013-07-20 02:33:00,
2013-07-19 22:43:00,69.0,67.0,30.15,West,281,0.0,-999.0,94,-99.99,,,-99.99,,2013-07-20 02:43:00,
2013-07-19 22:52:00,69.0,68.0,30.15,West,281,0.0,-999.0,95,-99.99,,,-99.99,,2013-07-20 02:52:00,
2013-07-19 23:02:00,69.0,68.0,30.15,West,281,0.0,-999.0,95,-99.99,,,-99.99,,2013-07-20 03:02:00,
2013-07-19 23:12:00,68.0,67.0,30.15,West,281,0.0,-999.0,95,-99.99,,,-99.99,,2013-07-20 03:12:00,
2013-07-19 23:22:00,68.0,67.0,30.15,West,281,0.0,-999.0,95,-99.99,,,-99.99,,2013-07-20 03:22:00,
2013-07-19 23:44:00,68.0,67.0,30.14,West,281,0.0,-999.0,96,-99.99,,,-99.99,,2013-07-20 03:44:00,
2013-07-19 23:53:00,68.0,67.0,30.14,West,281,0.0,-999.0,96,-99.99,,,-99.99,,2013-07-20 03:53:00,